Flight Track Log - Related Links

Times and Time Zones

All times are in EDT time to prevent confusion due to time zone crossing. See the AAL2026 flight status page for this flight to view local times or setup timezone preferences in your user account.

Time Position Orientation Groundspeed Altitude Reporting Facility
EDT Latitude Longitude Course Direction KTS MPH feet Rate Location/Type
Tue 08:58:48 PM 41.9800 -87.9170 317° Northwest 10 12  Level FlightAware ADS-B
Tue 09:03:43 PM 41.9800 -87.9180 270° West 19 22 82 Level FlightAware ADS-B
Tue 09:05:35 PM 41.9820 -87.9180 360° North 12 14 150 Level FlightAware ADS-B
Tue 09:07:58 PM 41.9830 -87.9180 155° Southeast 13 15 218 Level FlightAware ADS-B
Tue 09:08:00 PM 41.9035 -87.5775 155° Southeast  Level Estimated
Tue 09:08:53 PM 41.9840 -87.9180 360° North 16 18  Level FlightAware ADS-B
Tue 09:09:13 PM 41.9840 -87.9170 90° East 36 41 1,080 Level FlightAware ADS-B
Tue 09:09:43 PM 41.9840 -87.8940 90° East 172 198 900 2,875 Climbing FlightAware ADS-B
Tue 09:10:01 PM 41.9830 -87.8760 94° East 157 181 2,300 2,809 Climbing FlightAware ADS-B
Tue 09:10:30 PM 41.9810 -87.8440 95° East 201 231 3,100 1,789 Climbing FlightAware ADS-B
Tue 09:10:58 PM 41.9780 -87.8040 96° East 252 290 4,000 1,800 Climbing FlightAware ADS-B
Tue 09:11:10 PM 41.9740 -87.7840 105° East 274 315 4,300 1,250 Climbing FlightAware ADS-B
Tue 09:11:22 PM 41.9670 -87.7680 120° Southeast 284 327 4,500 818 Climbing FlightAware ADS-B
Tue 09:11:54 PM 41.9310 -87.7360 147° Southeast 289 333 4,900 500 Climbing FlightAware ADS-B
Tue 09:12:22 PM 41.8930 -87.7300 173° South 290 334 5,000 120 Climbing FlightAware ADS-B
Tue 09:12:44 PM 41.8630 -87.7280 177° South 289 333 5,000  Level FlightAware ADS-B
Tue 09:13:02 PM 41.8410 -87.7260 176° South 289 333 5,000  Level FlightAware ADS-B
Tue 09:13:28 PM 41.8050 -87.7230 176° South 288 331 5,000  Level FlightAware ADS-B
Tue 09:13:58 PM 41.7660 -87.7290 187° South 281 323 5,000 621 Level FlightAware ADS-B
Tue 09:14:26 PM 41.7310 -87.7500 204° Southwest 294 338 5,600 2,339 Climbing FlightAware ADS-B
Tue 09:14:57 PM 41.6930 -87.7730 204° Southwest 301 346 7,300 2,667 Climbing FlightAware ADS-B
Tue 09:15:38 PM 41.6360 -87.7670 176° South 324 373 8,800 2,348 Climbing FlightAware ADS-B
Tue 09:16:06 PM 41.6010 -87.7350 146° Southeast 333 383 10,000 3,043 Climbing FlightAware ADS-B
Tue 09:16:47 PM 41.5500 -87.6850 144° Southeast 337 388 12,300 2,963 Climbing FlightAware ADS-B
Tue 09:17:27 PM 41.4960 -87.6380 147° Southeast 363 418 14,000 2,329 Climbing FlightAware ADS-B
Tue 09:18:12 PM 41.4240 -87.5980 157° South 392 451 15,600 2,475 Climbing FlightAware ADS-B
Tue 09:18:47 PM 41.3640 -87.5780 166° South 397 457 17,300 2,960 Climbing FlightAware ADS-B
Tue 09:19:27 PM 41.2880 -87.5520 166° South 406 467 19,300 2,714 Climbing FlightAware ADS-B
Tue 09:20:11 PM 41.2090 -87.5250 166° South 417 480 21,100 2,541 Climbing FlightAware ADS-B
Tue 09:20:52 PM 41.1310 -87.4990 166° South 422 486 22,900 2,500 Climbing FlightAware ADS-B
Tue 09:21:35 PM 41.0470 -87.4700 165° South 427 491 24,600 1,952 Climbing FlightAware ADS-B
Tue 09:22:15 PM 40.9690 -87.4440 166° South 443 510 25,600 1,463 Climbing FlightAware ADS-B
Tue 09:22:57 PM 40.8830 -87.4150 166° South 460 529 26,600 1,600 Climbing FlightAware ADS-B
Tue 09:23:30 PM 40.8180 -87.3920 165° South 464 534 27,600 1,077 Climbing FlightAware ADS-B
Tue 09:24:15 PM 40.7250 -87.3610 166° South 464 534 28,000 276 Climbing FlightAware ADS-B
Tue 09:24:57 PM 40.6330 -87.3310 166° South 463 533 28,000 316 Level FlightAware ADS-B
Tue 09:25:31 PM 40.5640 -87.3080 166° South 462 532 28,400 1,231 Climbing FlightAware ADS-B
Tue 09:26:15 PM 40.4720 -87.2770 166° South 466 536 29,600 1,568 Climbing FlightAware ADS-B
Tue 09:26:59 PM 40.3810 -87.2470 166° South 472 543 30,700 1,429 Climbing FlightAware ADS-B
Tue 09:27:39 PM 40.2990 -87.2200 166° South 477 549 31,600 1,463 Climbing FlightAware ADS-B
Tue 09:28:21 PM 40.2140 -87.1910 165° South 475 547 32,700 1,778 Climbing FlightAware ADS-B
Tue 09:29:00 PM 40.1230 -87.1610 166° South 470 541 34,000 1,735 Climbing FlightAware ADS-B
Tue 09:29:44 PM 40.0330 -87.1320 166° South 468 539 35,100 1,364 Climbing FlightAware ADS-B
Tue 09:30:28 PM 39.9460 -87.0820 156° South 483 556 36,000 1,116 Climbing FlightAware ADS-B
Tue 09:31:10 PM 39.8620 -87.0120 147° Southeast 489 563 36,700 1,077 Climbing FlightAware ADS-B
Tue 09:31:46 PM 39.7970 -86.9580 147° Southeast 488 562 37,400 1,157 Climbing FlightAware ADS-B
Tue 09:32:33 PM 39.7070 -86.8820 147° Southeast 484 557 38,300 1,067 Climbing FlightAware ADS-B
Tue 09:33:16 PM 39.6250 -86.8140 147° Southeast 483 556 39,000 512 Climbing FlightAware ADS-B
Tue 09:33:55 PM 39.5490 -86.7500 147° Southeast 485 558 39,000  Level FlightAware ADS-B
Tue 09:34:35 PM 39.4730 -86.6880 148° Southeast 482 555 39,000  Level FlightAware ADS-B
Tue 09:35:23 PM 39.3850 -86.6140 147° Southeast 477 549 39,000  Level FlightAware ADS-B
Tue 09:36:05 PM 39.3270 -86.5270 131° Southeast 498 573 39,000  Level FlightAware ADS-B
Tue 09:36:46 PM 39.2940 -86.4050 109° East 502 578 39,000  Level FlightAware ADS-B
Tue 09:37:22 PM 39.2680 -86.3020 108° East 500 575 39,000  Level FlightAware ADS-B
Tue 09:38:02 PM 39.2380 -86.1890 109° East 497 572 39,000  Level FlightAware ADS-B
Tue 09:38:59 PM 39.1980 -86.0320 108° East 492 566 39,000  Level FlightAware ADS-B
Tue 09:39:34 PM 39.1720 -85.9360 109° East 491 565 39,000  Level FlightAware ADS-B
Tue 09:39:53 PM 39.1580 -85.8800 108° East 492 566 39,000  Level FlightAware ADS-B
Tue 09:40:50 PM 39.1170 -85.7270 109° East 492 566 39,000  Level FlightAware ADS-B
Tue 09:41:36 PM 39.0830 -85.5990 109° East 491 565 39,000  Level FlightAware ADS-B
Tue 09:42:31 PM 39.0430 -85.4490 109° East 491 565 39,000  Level FlightAware ADS-B
Tue 09:43:17 PM 39.0080 -85.3180 109° East 491 565 39,000  Level FlightAware ADS-B
Tue 09:43:56 PM 38.9800 -85.2120 109° East 495 570 39,000  Level FlightAware ADS-B
Tue 09:44:33 PM 38.9510 -85.1070 110° East 496 571 39,000  Level FlightAware ADS-B
Tue 09:45:15 PM 38.9200 -84.9930 109° East 497 572 39,000  Level FlightAware ADS-B
Tue 09:45:54 PM 38.8900 -84.8850 110° East 495 570 39,000  Level FlightAware ADS-B
Tue 09:46:39 PM 38.8550 -84.7570 109° East 494 568 39,000  Level FlightAware ADS-B
Tue 09:47:13 PM 38.8330 -84.6760 109° East 494 568 39,000  Level FlightAware ADS-B
Tue 09:48:11 PM 38.7860 -84.5070 110° East 493 567 39,000  Level FlightAware ADS-B
Tue 09:49:11 PM 38.7390 -84.3410 110° East 490 564 39,000  Level FlightAware ADS-B
Tue 09:49:41 PM 38.7160 -84.2590 110° East 490 564 39,000  Level FlightAware ADS-B
Tue 09:50:33 PM 38.6830 -84.1380 109° East 490 564 39,000  Level FlightAware ADS-B
Tue 09:51:11 PM 38.6470 -84.0160 111° Southeast 492 566 39,000  Level FlightAware ADS-B
Tue 09:51:49 PM 38.6180 -83.9110 109° East 490 564 39,000  Level FlightAware ADS-B
Tue 09:52:27 PM 38.5890 -83.8090 110° East 490 564 39,000  Level FlightAware ADS-B
Tue 09:53:13 PM 38.5520 -83.6820 110° East 492 566 39,000  Level FlightAware ADS-B
Tue 09:53:48 PM 38.5250 -83.5880 110° East 491 565 39,000  Level FlightAware ADS-B
Tue 09:54:49 PM 38.4811 -83.4166 108° East 39,000  Level FlightAware ADS-B
Tue 09:55:04 PM 38.4755 -83.3743 100° East 496 571 39,000  Level FlightAware ADS-B
Tue 09:56:14 PM 38.4540 -83.1770 98° East 500 575 39,000  Level FlightAware ADS-B
Tue 09:56:49 PM 38.4430 -83.0700 97° East 500 575 39,000  Level FlightAware ADS-B
Tue 09:57:25 PM 38.4307 -82.9642 98° East 499 574 39,000  Level FlightAware ADS-B
Tue 09:58:08 PM 38.4160 -82.8430 99° East 485 558 39,000  Level FlightAware ADS-B
Tue 09:59:08 PM 38.3980 -82.6850 98° East 482 555 39,000  Level FlightAware ADS-B
Tue 09:59:51 PM 38.3820 -82.5560 99° East 481 554 39,000  Level FlightAware ADS-B
Tue 10:00:33 PM 38.3681 -82.4356 98° East 481 554 39,000  Level FlightAware ADS-B
Tue 10:01:22 PM 38.3516 -82.2978 99° East 481 554 39,000  Level FlightAware ADS-B
Tue 10:01:53 PM 38.3413 -82.2120 99° East 482 555 39,000  Level FlightAware ADS-B
Tue 10:02:24 PM 38.3310 -82.1250 99° East 482 555 39,000  Level FlightAware ADS-B
Tue 10:03:21 PM 38.3150 -81.9840 98° East 483 556 39,000  Level FlightAware ADS-B
Tue 10:03:59 PM 38.2980 -81.8600 100° East 487 560 39,000  Level FlightAware ADS-B
Tue 10:04:43 PM 38.2824 -81.7330 99° East 489 563 39,000  Level FlightAware ADS-B
Tue 10:05:14 PM 38.2715 -81.6462 99° East 487 560 39,000  Level FlightAware ADS-B
Tue 10:05:46 PM 38.2599 -81.5543 99° East 487 560 39,000  Level FlightAware ADS-B
Tue 10:06:52 PM 38.2361 -81.3698 99° East 486 559 39,000  Level FlightAware ADS-B
Tue 10:07:29 PM 38.2230 -81.2660 99° East 487 560 39,000  Level FlightAware ADS-B
Tue 10:07:46 PM 38.2165 -81.2186 100° East 486 559 39,000  Level FlightAware ADS-B
Tue 10:08:16 PM 38.2055 -81.1332 99° East 489 563 39,000  Level FlightAware ADS-B
Tue 10:08:54 PM 38.1920 -81.0260 99° East 490 564 39,000  Level FlightAware ADS-B
Tue 10:09:09 PM 38.1858 -80.9825 100° East 489 563 39,000  Level FlightAware ADS-B
Tue 10:09:50 PM 38.1702 -80.8658 100° East 495 570 39,000  Level FlightAware ADS-B
Tue 10:10:32 PM 38.1541 -80.7456 100° East 498 573 39,000  Level FlightAware ADS-B
Tue 10:11:14 PM 38.1376 -80.6229 100° East 498 573 39,000  Level FlightAware ADS-B
Tue 10:12:22 PM 38.1110 -80.4300 100° East 503 579 39,000  Level FlightAware ADS-B
Tue 10:13:06 PM 38.0950 -80.2990 99° East 505 581 39,000  Level FlightAware ADS-B
Tue 10:13:46 PM 38.1120 -80.1850 79° East 499 574 39,000  Level FlightAware ADS-B
Tue 10:14:45 PM 38.1630 -80.0440 65° Northeast 497 572 39,000  Level FlightAware ADS-B
Tue 10:15:12 PM 38.1780 -79.9480 79° East 502 578 39,000 -387 Level FlightAware ADS-B
Tue 10:15:47 PM 38.1770 -79.8460 91° East 502 578 38,600 -975 Descending FlightAware ADS-B
Tue 10:16:32 PM 38.1740 -79.7160 92° East 503 579 37,700 -1,256 Descending FlightAware ADS-B
Tue 10:17:13 PM 38.1860 -79.5960 83° East 500 575 36,800 -1,475 Descending FlightAware ADS-B
Tue 10:17:33 PM 38.2080 -79.5470 60° Northeast 489 563 36,200 -2,250 Descending FlightAware ADS-B
Tue 10:18:17 PM 38.2620 -79.4440 56° Northeast 487 560 34,400 -2,649 Descending FlightAware ADS-B
Tue 10:18:50 PM 38.3040 -79.3620 57° Northeast 488 562 32,800 -2,800 Descending FlightAware ADS-B
Tue 10:19:32 PM 38.3570 -79.2590 57° Northeast 484 557 30,900 -2,370 Descending FlightAware ADS-B
Tue 10:20:11 PM 38.4000 -79.1720 58° Northeast 470 541 29,600 -2,357 Descending FlightAware ADS-B
Tue 10:20:56 PM 38.4530 -79.0630 58° Northeast 453 521 27,600 -2,400 Descending FlightAware ADS-B
Tue 10:21:36 PM 38.4810 -78.9630 70° East 456 525 26,200 -1,906 Descending FlightAware ADS-B
Tue 10:22:21 PM 38.5000 -78.8510 78° East 447 514 24,900 -1,786 Descending FlightAware ADS-B
Tue 10:23:00 PM 38.5170 -78.7470 78° East 443 510 23,700 -1,807 Descending FlightAware ADS-B
Tue 10:23:44 PM 38.5340 -78.6350 79° East 436 502 22,400 -1,756 Descending FlightAware ADS-B
Tue 10:24:22 PM 38.5490 -78.5400 79° East 426 490 21,300 -1,692 Descending FlightAware ADS-B
Tue 10:25:02 PM 38.5650 -78.4420 78° East 414 476 20,200 -1,650 Descending FlightAware ADS-B
Tue 10:25:42 PM 38.5800 -78.3490 78° East 405 466 19,100 -1,533 Descending FlightAware ADS-B
Tue 10:26:32 PM 38.6000 -78.2420 77° East 397 457 17,900 -1,474 Descending FlightAware ADS-B
Tue 10:27:36 PM 38.6460 -78.0990 68° East 382 440 16,300 -1,528 Descending FlightAware ADS-B
Tue 10:28:18 PM 38.6740 -78.0120 68° East 355 409 15,200 -1,390 Descending FlightAware ADS-B
Tue 10:28:58 PM 38.6980 -77.9360 68° East 342 394 14,400 -1,263 Descending FlightAware ADS-B
Tue 10:29:34 PM 38.7190 -77.8700 68° East 334 384 13,600 -1,342 Descending FlightAware ADS-B
Tue 10:30:14 PM 38.7500 -77.8030 59° Northeast 319 367 12,700 -1,286 Descending FlightAware ADS-B
Tue 10:30:58 PM 38.7930 -77.7410 48° Northeast 314 361 11,800 -1,200 Descending FlightAware ADS-B
Tue 10:31:34 PM 38.8250 -77.6890 52° Northeast 311 358 11,100 -1,184 Descending FlightAware ADS-B
Tue 10:32:14 PM 38.8490 -77.6230 65° Northeast 307 353 10,300 -1,179 Descending FlightAware ADS-B
Tue 10:32:30 PM 38.8580 -77.5990 64° Northeast 306 352 10,000 -1,132 Descending FlightAware ADS-B
Tue 10:33:07 PM 38.8800 -77.5390 65° Northeast 297 342 9,300 -1,164 Descending FlightAware ADS-B
Tue 10:33:37 PM 38.8970 -77.4910 66° East 292 336 8,700 -1,200 Descending FlightAware ADS-B
Tue 10:34:02 PM 38.9060 -77.4520 73° East 294 338 8,200 -1,333 Descending FlightAware ADS-B
Tue 10:34:22 PM 38.8990 -77.4200 106° East 300 345 7,700 -1,333 Descending FlightAware ADS-B
Tue 10:34:47 PM 38.8810 -77.3790 119° Southeast 294 338 7,200 -1,200 Descending FlightAware ADS-B
Tue 10:35:17 PM 38.8610 -77.3330 119° Southeast 292 336 6,600 -1,000 Descending FlightAware ADS-B
Tue 10:35:47 PM 38.8410 -77.2890 120° Southeast 280 322 6,200 -436 Descending FlightAware ADS-B
Tue 10:36:12 PM 38.8250 -77.2540 120° Southeast 258 297 6,200  Level FlightAware ADS-B
Tue 10:36:22 PM 38.8200 -77.2410 116° Southeast 254 292 6,200  Level FlightAware ADS-B
Tue 10:36:47 PM 38.8050 -77.2090 121° Southeast 238 274 6,200 -480 Level FlightAware ADS-B
Tue 10:37:12 PM 38.7920 -77.1800 120° Southeast 228 262 5,800 -1,200 Descending FlightAware ADS-B
Tue 10:37:42 PM 38.7770 -77.1450 119° Southeast 229 264 5,100 -1,400 Descending FlightAware ADS-B
Tue 10:38:12 PM 38.7540 -77.1170 136° Southeast 226 260 4,400 -1,080 Descending FlightAware ADS-B
Tue 10:38:32 PM 38.7350 -77.1120 168° South 216 249 4,200 -240 Descending FlightAware ADS-B
Tue 10:39:02 PM 38.7040 -77.1100 177° South 215 247 4,200  Level FlightAware ADS-B
Tue 10:39:27 PM 38.6810 -77.1090 178° South 209 241 4,200  Level FlightAware ADS-B
Tue 10:39:52 PM 38.6570 -77.1080 178° South 197 227 4,200  Level FlightAware ADS-B
Tue 10:40:22 PM 38.6310 -77.1070 178° South 192 221 4,200 -327 Level FlightAware ADS-B
Tue 10:40:47 PM 38.6080 -77.1000 167° South 196 226 3,900 -800 Descending FlightAware ADS-B
Tue 10:41:07 PM 38.5960 -77.0870 140° Southeast 201 231 3,600 -1,200 Descending FlightAware ADS-B
Tue 10:41:17 PM 38.5900 -77.0730 119° Southeast 202 232 3,300 -1,200 Descending FlightAware ADS-B
Tue 10:41:47 PM 38.6020 -77.0470 59° Northeast 183 211 2,800 -800 Descending FlightAware ADS-B
Tue 10:42:02 PM 38.6130 -77.0400 26° Northeast 178 205 2,700 -133 Descending FlightAware ADS-B
Tue 10:42:32 PM 38.6380 -77.0340 11° North 176 203 2,700  Level FlightAware ADS-B
Tue 10:42:57 PM 38.6560 -77.0310 North 174 200 2,700  Level FlightAware ADS-B
Tue 10:43:22 PM 38.6770 -77.0300 North 176 203 2,700 -360 Level FlightAware ADS-B
Tue 10:43:47 PM 38.6990 -77.0290 North 174 200 2,400 -982 Descending FlightAware ADS-B
Tue 10:44:17 PM 38.7230 -77.0290 360° North 177 204 1,800 -655 Descending FlightAware ADS-B
Tue 10:44:42 PM 38.7420 -77.0300 358° North 174 200 1,800 -218 Level FlightAware ADS-B
Tue 10:45:12 PM 38.7630 -77.0320 356° North 150 173 1,600 -554 Descending FlightAware ADS-B
Tue 10:45:47 PM 38.7900 -77.0310 North 149 171 1,200 -700 Descending FlightAware ADS-B
Tue 10:46:12 PM 38.8070 -77.0330 355° North 145 167 900 -423 Descending FlightAware ADS-B
Tue 10:46:58 PM 38.8350 -77.0360 355° North 148 170 700 -261 Descending FlightAware ADS-B

Login

Don't have an account? Register now (free) for customized features, flight alerts, and more!